Time;durP1;ratioP1;P1;durP2;ratioP2;P2;SDS_P1;SDS_P2;PMS_P1;PMS_P2;Temp;Humidity;BMP_temperature;BMP_pressure;BME280_temperature;BME280_humidity;BME280_pressure;Samples;Min_cycle;Max_cycle;Signal;HPM_P1;HPM_P2
2023/03/20 00:01:13;;;;;;;11.65;5.38;;;7.90;99.90;;;;;;5065806;28;20056;-88
2023/03/20 00:03:39;;;;;;;12.77;5.32;;;7.90;99.90;;;;;;5065808;28;21112;-88
2023/03/20 00:06:10;;;;;;;13.90;5.28;;;7.90;99.90;;;;;;5048996;28;20178;-88
2023/03/20 00:08:38;;;;;;;11.10;5.07;;;7.90;99.90;;;;;;5048893;28;20047;-88
2023/03/20 00:11:04;;;;;;;15.15;5.38;;;8.90;99.90;;;;;;5065778;28;20386;-89
2023/03/20 00:13:29;;;;;;;12.88;5.18;;;7.90;99.90;;;;;;5049086;28;20044;-88
2023/03/20 00:15:55;;;;;;;10.65;4.97;;;7.90;99.90;;;;;;5065201;28;20037;-87
2023/03/20 00:18:24;;;;;;;12.20;4.97;;;7.90;99.90;;;;;;5030645;28;20566;-89
2023/03/20 00:20:50;;;;;;;10.70;4.75;;;7.90;99.90;;;;;;5065672;28;20036;-88
2023/03/20 00:23:17;;;;;;;12.07;5.05;;;7.90;99.90;;;;;;5062749;28;20155;-88
2023/03/20 00:25:46;;;;;;;10.48;4.90;;;8.00;99.90;;;;;;5042239;28;20048;-88
2023/03/20 00:28:26;;;;;;;11.00;4.72;;;8.20;99.90;;;;;;5064293;28;20036;-88
2023/03/20 00:30:52;;;;;;;11.40;4.75;;;7.80;99.90;;;;;;5060116;28;20072;-89
2023/03/20 00:33:18;;;;;;;10.52;4.65;;;8.90;99.90;;;;;;5048314;28;20524;-88
2023/03/20 00:35:43;;;;;;;11.55;5.10;;;7.80;99.90;;;;;;5047631;28;20065;-89
2023/03/20 00:38:09;;;;;;;11.88;5.20;;;;;;;;;;5045590;28;20037;-89
2023/03/20 00:40:35;;;;;;;10.65;4.95;;;7.70;99.90;;;;;;5045782;28;20036;-87
2023/03/20 00:43:03;;;;;;;11.65;4.40;;;7.70;99.90;;;;;;5029642;28;20070;-88
2023/03/20 00:45:32;;;;;;;10.93;4.80;;;8.70;99.90;;;;;;5065245;28;20197;-88
2023/03/20 00:47:59;;;;;;;10.65;4.18;;;6.20;99.90;;;;;;5063181;28;20052;-88
2023/03/20 00:50:30;;;;;;;10.80;4.35;;;7.60;99.90;;;;;;5049274;28;20058;-88
2023/03/20 00:52:57;;;;;;;10.68;4.97;;;8.30;99.90;;;;;;5065125;28;20115;-88
2023/03/20 00:55:28;;;;;;;12.10;5.30;;;7.80;99.90;;;;;;5048473;28;20088;-88
2023/03/20 00:58:00;;;;;;;10.82;4.72;;;7.60;99.90;;;;;;5057598;28;20121;-87
2023/03/20 01:00:37;;;;;;;10.30;4.50;;;8.30;99.90;;;;;;5063376;28;20102;-88
2023/03/20 01:03:16;;;;;;;10.20;3.97;;;7.60;99.90;;;;;;5061723;28;20040;-89
2023/03/20 01:05:43;;;;;;;10.93;4.00;;;7.60;99.90;;;;;;5062580;28;20047;-88
2023/03/20 01:08:21;;;;;;;10.65;4.32;;;7.60;99.90;;;;;;5045406;28;20408;-87
2023/03/20 01:10:49;;;;;;;9.95;4.15;;;7.60;99.90;;;;;;5043841;28;20048;-88
2023/03/20 01:13:41;;;;;;;11.15;4.07;;;7.60;99.90;;;;;;5061217;28;20116;-87
2023/03/20 01:16:22;;;;;;;10.20;4.50;;;7.60;99.90;;;;;;5043361;28;20381;-87
2023/03/20 01:18:49;;;;;;;14.60;4.80;;;8.00;99.90;;;;;;5062686;28;20552;-88
2023/03/20 01:21:15;;;;;;;9.88;4.40;;;6.30;99.90;;;;;;5062054;28;20032;-88
2023/03/20 01:23:41;;;;;;;9.23;3.90;;;;;;;;;;5063827;28;20033;-88
2023/03/20 01:26:25;;;;;;;12.50;4.50;;;7.60;99.90;;;;;;5047698;28;20102;-88
2023/03/20 01:28:51;;;;;;;14.80;4.88;;;7.60;99.90;;;;;;5062012;28;20102;-89
2023/03/20 01:31:17;;;;;;;13.65;4.75;;;7.60;99.90;;;;;;5034453;28;20048;-88
2023/03/20 01:33:43;;;;;;;12.02;5.03;;;7.60;99.90;;;;;;5045795;28;20074;-89
2023/03/20 01:36:10;;;;;;;10.85;4.68;;;7.70;99.90;;;;;;5014401;28;20041;-88
2023/03/20 01:38:36;;;;;;;11.25;4.53;;;;;;;;;;5062389;28;20047;-89
2023/03/20 01:41:10;;;;;;;12.73;5.28;;;7.60;99.90;;;;;;5043054;28;20128;-87
2023/03/20 01:43:36;;;;;;;13.18;4.60;;;7.60;99.90;;;;;;5082685;28;20036;-88
2023/03/20 01:46:02;;;;;;;10.73;4.55;;;7.90;99.90;;;;;;5046102;28;20131;-88
2023/03/20 01:48:56;;;;;;;9.57;4.38;;;7.60;99.90;;;;;;5063034;28;20040;-87
2023/03/20 01:51:27;;;;;;;13.73;4.80;;;7.60;99.90;;;;;;5041820;28;20067;-88
2023/03/20 01:54:01;;;;;;;12.85;5.22;;;7.60;99.90;;;;;;5062370;28;20032;-88
2023/03/20 01:56:30;;;;;;;12.38;4.60;;;7.60;99.90;;;;;;5062721;28;20049;-87
2023/03/20 01:59:04;;;;;;;15.02;4.97;;;7.60;99.90;;;;;;5063693;28;20037;-88
2023/03/20 02:01:30;;;;;;;12.10;5.00;;;8.10;99.90;;;;;;5064326;28;20110;-88
2023/03/20 02:03:56;;;;;;;14.55;6.00;;;7.70;99.90;;;;;;5063480;28;20037;-89
2023/03/20 02:06:24;;;;;;;11.85;5.38;;;7.60;99.90;;;;;;5045947;28;20036;-88
2023/03/20 02:08:52;;;;;;;12.43;4.97;;;7.60;99.90;;;;;;5064480;28;20068;-88
2023/03/20 02:11:23;;;;;;;14.93;5.88;;;7.60;99.90;;;;;;5060600;28;20036;-89
2023/03/20 02:13:52;;;;;;;14.45;5.82;;;7.60;99.90;;;;;;5063547;28;20550;-88
2023/03/20 02:16:19;;;;;;;13.35;5.90;;;8.70;99.90;;;;;;5061353;28;20032;-88
2023/03/20 02:18:48;;;;;;;15.38;5.82;;;8.60;99.90;;;;;;5047869;28;20512;-87
2023/03/20 02:21:22;;;;;;;13.20;5.63;;;7.60;99.90;;;;;;5060801;28;20040;-87
2023/03/20 02:24:18;;;;;;;12.43;5.55;;;7.60;99.90;;;;;;5063905;28;20036;-88
2023/03/20 02:27:07;;;;;;;13.55;6.03;;;7.60;99.90;;;;;;5060400;28;20082;-88
2023/03/20 02:30:10;;;;;;;11.93;5.47;;;7.60;99.90;;;;;;5058346;28;20037;-89
2023/03/20 02:33:00;;;;;;;19.63;6.55;;;7.60;99.90;;;;;;5042534;28;20092;-88
2023/03/20 02:35:44;;;;;;;16.95;6.30;;;7.60;99.90;;;;;;5060911;28;20032;-88
2023/03/20 02:38:42;;;;;;;14.15;6.38;;;7.60;99.90;;;;;;5062242;28;20044;-88
2023/03/20 02:41:31;;;;;;;14.52;6.55;;;7.60;99.90;;;;;;5042410;28;20992;-87
2023/03/20 02:44:24;;;;;;;20.35;7.35;;;7.70;99.90;;;;;;5061858;28;20586;-89
2023/03/20 02:46:56;;;;;;;15.85;7.07;;;7.60;99.90;;;;;;5046047;28;20036;-88
2023/03/20 02:49:24;;;;;;;16.23;7.20;;;7.70;99.90;;;;;;5043694;28;20512;-89
2023/03/20 02:52:04;;;;;;;18.17;7.38;;;7.70;99.90;;;;;;5044364;28;20045;-87
2023/03/20 02:54:53;;;;;;;20.30;8.02;;;7.70;99.90;;;;;;5061590;28;21424;-87
2023/03/20 02:57:58;;;;;;;14.38;6.53;;;7.70;99.90;;;;;;5061048;28;21228;-88
2023/03/20 03:00:29;;;;;;;17.90;7.60;;;7.70;99.90;;;;;;5060935;28;20060;-86
2023/03/20 03:03:06;;;;;;;18.00;7.25;;;7.70;99.90;;;;;;5058470;28;20435;-88
2023/03/20 03:05:44;;;;;;;15.68;6.93;;;7.60;99.90;;;;;;5061376;28;20712;-88
2023/03/20 03:08:13;;;;;;;16.98;7.10;;;7.70;99.90;;;;;;5059383;28;20123;-88
2023/03/20 03:10:50;;;;;;;19.42;7.55;;;7.70;99.90;;;;;;5062574;28;20194;-88
2023/03/20 03:13:23;;;;;;;16.27;6.85;;;8.60;99.90;;;;;;5061501;28;20040;-87
2023/03/20 03:15:51;;;;;;;;;;;7.70;99.90;;;;;;5061204;28;20044;-88
2023/03/20 03:18:21;;;;;;;19.55;7.30;;;8.00;99.90;;;;;;5063408;28;19924;-88
2023/03/20 03:20:51;;;;;;;19.13;7.50;;;7.70;99.90;;;;;;5060925;28;20043;-88
2023/03/20 03:23:34;;;;;;;16.42;7.20;;;7.70;99.90;;;;;;5058459;28;20047;-89
2023/03/20 03:26:02;;;;;;;17.23;7.28;;;8.70;99.90;;;;;;5064078;28;20127;-88
2023/03/20 03:28:43;;;;;;;18.75;7.60;;;7.70;99.90;;;;;;5063022;28;20456;-88
2023/03/20 03:31:14;;;;;;;20.33;7.45;;;7.80;99.90;;;;;;5062051;28;20043;-87
2023/03/20 03:33:44;;;;;;;17.27;7.40;;;7.70;99.90;;;;;;5060713;28;20279;-86
2023/03/20 03:36:27;;;;;;;20.75;8.02;;;8.60;99.90;;;;;;5045940;28;20123;-87
2023/03/20 03:39:05;;;;;;;18.50;8.38;;;7.70;99.90;;;;;;5059173;28;20044;-87
2023/03/20 03:41:40;;;;;;;16.85;8.02;;;7.70;99.90;;;;;;5062074;28;20481;-89
2023/03/20 03:44:06;;;;;;;21.85;8.93;;;7.70;99.90;;;;;;5061792;28;20182;-88
2023/03/20 03:46:32;;;;;;;18.13;8.95;;;7.90;99.90;;;;;;5060546;28;20527;-89
2023/03/20 03:48:59;;;;;;;19.65;8.98;;;7.80;99.90;;;;;;5061245;28;20041;-88
2023/03/20 03:51:32;;;;;;;19.48;8.98;;;8.00;99.90;;;;;;5060159;28;20544;-88
2023/03/20 03:54:21;;;;;;;21.05;8.38;;;7.70;99.90;;;;;;5061289;28;20409;-88
2023/03/20 03:56:49;;;;;;;18.35;8.73;;;7.80;99.90;;;;;;5061314;28;20079;-89
2023/03/20 03:59:29;;;;;;;22.17;8.73;;;8.00;99.90;;;;;;5045046;28;20189;-88
2023/03/20 04:01:55;;;;;;;22.08;9.18;;;7.80;99.90;;;;;;5058182;28;20036;-88
2023/03/20 04:04:24;;;;;;;19.85;8.32;;;7.90;99.90;;;;;;5043416;28;20044;-88
2023/03/20 04:06:50;;;;;;;16.77;8.50;;;7.80;99.90;;;;;;5048803;28;20089;-88
2023/03/20 04:09:15;;;;;;;19.17;9.00;;;7.80;99.90;;;;;;5050510;28;20056;-88
2023/03/20 04:11:42;;;;;;;18.15;8.50;;;8.30;99.90;;;;;;5064328;28;20497;-89
2023/03/20 04:14:07;;;;;;;18.20;8.30;;;7.80;99.90;;;;;;5032041;28;20043;-88
2023/03/20 04:16:33;;;;;;;20.83;8.52;;;7.70;99.90;;;;;;5030826;28;20037;-87
2023/03/20 04:18:59;;;;;;;17.75;8.57;;;7.80;99.90;;;;;;5048168;28;20116;-88
2023/03/20 04:21:25;;;;;;;19.80;8.77;;;7.80;99.90;;;;;;5048209;28;20120;-87
2023/03/20 04:23:50;;;;;;;17.92;8.10;;;7.80;99.90;;;;;;5033494;28;20047;-87
2023/03/20 04:26:16;;;;;;;19.58;7.43;;;7.80;99.90;;;;;;5031899;28;20036;-88
2023/03/20 04:28:42;;;;;;;17.50;8.15;;;7.80;99.90;;;;;;5047858;28;20348;-88
2023/03/20 04:31:07;;;;;;;17.45;8.60;;;8.80;99.90;;;;;;5030602;28;20270;-88
2023/03/20 04:33:33;;;;;;;15.07;7.68;;;9.10;99.90;;;;;;5064630;28;20553;-88
2023/03/20 04:35:59;;;;;;;18.38;8.07;;;7.80;99.90;;;;;;5048525;28;20059;-88
2023/03/20 04:38:25;;;;;;;15.57;7.95;;;7.90;99.90;;;;;;5065190;28;20040;-87
2023/03/20 04:40:51;;;;;;;16.63;7.80;;;7.80;99.90;;;;;;5048386;28;20094;-88
2023/03/20 04:43:17;;;;;;;17.70;7.40;;;7.80;99.90;;;;;;5030171;28;20509;-88
2023/03/20 04:45:43;;;;;;;17.33;7.55;;;7.80;99.90;;;;;;5063008;28;20047;-88
2023/03/20 04:48:09;;;;;;;16.35;7.82;;;8.10;99.90;;;;;;5030756;28;20052;-88
2023/03/20 04:50:35;;;;;;;16.73;7.78;;;7.80;99.90;;;;;;5065273;28;20063;-89
2023/03/20 04:53:00;;;;;;;16.75;7.63;;;7.80;99.90;;;;;;5046685;28;20036;-88
2023/03/20 04:55:26;;;;;;;17.20;7.07;;;7.80;99.90;;;;;;5029505;28;20174;-88
2023/03/20 04:57:52;;;;;;;17.67;7.82;;;7.80;99.90;;;;;;5042688;28;20048;-88
2023/03/20 05:00:18;;;;;;;14.10;7.07;;;7.80;99.90;;;;;;5045616;28;20505;-87
2023/03/20 05:02:44;;;;;;;16.15;7.18;;;7.80;99.90;;;;;;5049447;28;20032;-89
2023/03/20 05:05:10;;;;;;;15.10;8.10;;;8.10;99.90;;;;;;5029442;28;20875;-88
2023/03/20 05:07:36;;;;;;;15.52;8.10;;;7.80;99.90;;;;;;5064801;28;20052;-87
2023/03/20 05:10:03;;;;;;;17.20;8.23;;;7.80;99.90;;;;;;5046937;28;20584;-90
2023/03/20 05:12:28;;;;;;;16.73;7.20;;;7.70;99.90;;;;;;5031016;28;20113;-88
2023/03/20 05:14:54;;;;;;;17.00;8.13;;;7.80;99.90;;;;;;5031082;28;20521;-89
2023/03/20 05:17:23;;;;;;;19.90;8.38;;;7.80;99.90;;;;;;5029917;28;20036;-89
2023/03/20 05:19:49;;;;;;;16.05;7.97;;;7.80;99.90;;;;;;5064056;28;20098;-88
2023/03/20 05:22:16;;;;;;;15.65;7.63;;;7.80;99.90;;;;;;5029533;28;20040;-89
2023/03/20 05:24:41;;;;;;;16.48;7.72;;;7.80;99.90;;;;;;5060757;28;20047;-88
2023/03/20 05:27:07;;;;;;;18.15;7.97;;;7.80;99.90;;;;;;5012917;28;20041;-88
2023/03/20 05:29:33;;;;;;;14.80;7.53;;;7.80;99.90;;;;;;5047295;28;20080;-89
2023/03/20 05:31:59;;;;;;;15.25;7.53;;;9.10;99.90;;;;;;5029778;28;20481;-88
2023/03/20 05:34:24;;;;;;;17.67;8.02;;;8.10;99.90;;;;;;5026440;28;20028;-88
2023/03/20 05:36:50;;;;;;;14.77;7.03;;;8.90;99.90;;;;;;5044906;28;20071;-88
2023/03/20 05:39:16;;;;;;;14.85;7.30;;;7.80;99.90;;;;;;5046980;28;20035;-89
2023/03/20 05:41:42;;;;;;;15.07;7.38;;;7.80;99.90;;;;;;5045499;28;20074;-87
2023/03/20 05:44:08;;;;;;;15.25;6.65;;;7.80;99.90;;;;;;5030232;28;20064;-88
2023/03/20 05:46:34;;;;;;;17.08;7.07;;;7.80;99.90;;;;;;5043339;28;20032;-88
2023/03/20 05:49:00;;;;;;;15.85;6.72;;;7.80;99.90;;;;;;5063031;28;20036;-88
2023/03/20 05:51:26;;;;;;;17.67;7.15;;;8.00;99.90;;;;;;5062566;28;20478;-88
2023/03/20 05:53:52;;;;;;;14.27;6.60;;;7.80;99.90;;;;;;5046694;28;20049;-88
2023/03/20 05:56:17;;;;;;;15.85;6.97;;;7.80;99.90;;;;;;5042409;28;20125;-86
2023/03/20 05:58:44;;;;;;;15.70;6.65;;;;;;;;;;5026076;28;20097;-87
2023/03/20 06:01:10;;;;;;;15.25;6.70;;;7.80;99.90;;;;;;5059565;28;20109;-87
2023/03/20 06:03:35;;;;;;;16.50;6.75;;;7.80;99.90;;;;;;5041109;28;20048;-89
2023/03/20 06:06:02;;;;;;;15.48;6.32;;;7.80;99.90;;;;;;5042038;28;20036;-89
2023/03/20 06:08:29;;;;;;;13.77;6.97;;;7.80;99.90;;;;;;5047244;28;20037;-88
2023/03/20 06:10:55;;;;;;;13.75;6.60;;;7.80;99.90;;;;;;5046444;28;20484;-88
2023/03/20 06:13:21;;;;;;;15.27;6.93;;;8.70;99.90;;;;;;5046787;28;20185;-87
2023/03/20 06:15:46;;;;;;;14.73;6.63;;;7.80;99.90;;;;;;5046622;28;20681;-88
2023/03/20 06:18:12;;;;;;;14.77;6.88;;;7.80;99.90;;;;;;5046925;28;20170;-88
2023/03/20 06:20:38;;;;;;;15.77;7.00;;;8.40;99.90;;;;;;5013956;28;20037;-87
2023/03/20 06:23:04;;;;;;;14.13;6.75;;;7.80;99.90;;;;;;5024428;28;20044;-87
2023/03/20 06:25:29;;;;;;;17.98;7.60;;;7.80;99.90;;;;;;5044648;28;20033;-88
2023/03/20 06:27:56;;;;;;;14.32;6.68;;;7.80;99.90;;;;;;5045314;28;20527;-87
2023/03/20 06:30:22;;;;;;;16.13;7.57;;;7.80;99.90;;;;;;5033401;28;20405;-86
2023/03/20 06:32:47;;;;;;;15.15;7.15;;;7.90;99.90;;;;;;5018658;28;20028;-87
2023/03/20 06:35:13;;;;;;;17.52;7.15;;;8.80;99.90;;;;;;5030574;28;20041;-88
2023/03/20 06:37:39;;;;;;;16.50;7.35;;;7.90;99.90;;;;;;5072766;28;20044;-87
2023/03/20 06:40:06;;;;;;;16.70;8.05;;;7.90;99.90;;;;;;5050676;28;20047;-87
2023/03/20 06:42:32;;;;;;;14.57;7.50;;;7.90;99.90;;;;;;5051881;28;20044;-88
2023/03/20 06:44:57;;;;;;;15.80;8.02;;;8.00;99.90;;;;;;5068505;28;20055;-88
2023/03/20 06:47:23;;;;;;;16.55;7.55;;;8.60;99.90;;;;;;5051092;28;20036;-88
2023/03/20 06:49:49;;;;;;;16.55;7.60;;;8.00;99.90;;;;;;5034410;28;20037;-87
2023/03/20 06:52:17;;;;;;;16.75;7.53;;;8.00;99.90;;;;;;5018369;28;20032;-87
2023/03/20 06:54:43;;;;;;;16.67;8.25;;;8.00;99.90;;;;;;5050763;28;20044;-88
2023/03/20 06:57:10;;;;;;;18.80;8.57;;;8.00;99.90;;;;;;5068123;28;20040;-88
2023/03/20 06:59:35;;;;;;;16.27;8.32;;;9.00;99.90;;;;;;5068567;28;20401;-88
2023/03/20 07:02:02;;;;;;;15.90;8.23;;;8.30;99.90;;;;;;5050145;28;20054;-88
2023/03/20 07:04:28;;;;;;;16.60;8.43;;;8.00;99.90;;;;;;5051944;28;20044;-87
2023/03/20 07:06:54;;;;;;;19.45;9.13;;;8.00;99.90;;;;;;5046808;28;20066;-88
2023/03/20 07:09:21;;;;;;;19.27;8.57;;;8.00;99.90;;;;;;5029438;28;20120;-88
2023/03/20 07:11:47;;;;;;;15.23;8.10;;;8.80;99.90;;;;;;5060873;28;20048;-87
2023/03/20 07:14:13;;;;;;;15.27;8.20;;;8.10;99.90;;;;;;5062951;28;20136;-89
2023/03/20 07:16:39;;;;;;;17.50;9.35;;;8.10;99.90;;;;;;5062137;28;20036;-89
2023/03/20 07:19:05;;;;;;;19.83;9.15;;;8.20;99.90;;;;;;5060449;28;20508;-89
2023/03/20 07:21:31;;;;;;;20.70;9.00;;;8.20;99.90;;;;;;5061433;28;20509;-89
2023/03/20 07:23:57;;;;;;;18.45;8.68;;;8.70;99.90;;;;;;5061287;28;20053;-87
2023/03/20 07:26:23;;;;;;;17.98;8.65;;;8.30;99.90;;;;;;5047904;28;20047;-88
2023/03/20 07:28:49;;;;;;;17.23;7.90;;;8.60;99.90;;;;;;5028614;28;20120;-88
2023/03/20 07:31:24;;;;;;;15.63;8.45;;;8.30;99.90;;;;;;5045089;28;20051;-89
2023/03/20 07:33:50;;;;;;;17.95;9.05;;;8.40;99.90;;;;;;5060309;28;20182;-88
2023/03/20 07:36:15;;;;;;;18.48;9.00;;;8.40;99.90;;;;;;5047610;28;20036;-87
2023/03/20 07:38:41;;;;;;;18.00;8.52;;;10.10;99.90;;;;;;5063246;28;20135;-89
2023/03/20 07:41:07;;;;;;;16.27;8.60;;;;;;;;;;5047771;28;20067;-89
2023/03/20 07:43:36;;;;;;;17.58;8.80;;;8.60;99.90;;;;;;5043172;28;20524;-89
2023/03/20 07:46:06;;;;;;;16.25;7.93;;;8.70;99.90;;;;;;5063764;28;20091;-91
2023/03/20 07:48:32;;;;;;;17.02;8.30;;;8.70;99.90;;;;;;5067839;28;20121;-91
2023/03/20 07:50:58;;;;;;;18.10;9.00;;;8.80;99.90;;;;;;5034222;28;20051;-91
2023/03/20 07:53:24;;;;;;;17.08;8.45;;;8.80;99.90;;;;;;5049698;28;20032;-91
2023/03/20 07:55:50;;;;;;;17.50;8.18;;;8.90;99.90;;;;;;5032502;28;20080;-90
2023/03/20 07:58:16;;;;;;;16.52;8.38;;;8.90;99.90;;;;;;5065575;28;20160;-86
2023/03/20 08:00:42;;;;;;;17.80;9.00;;;8.90;99.90;;;;;;5047209;28;20592;-88
2023/03/20 08:03:08;;;;;;;18.02;8.10;;;8.90;99.90;;;;;;5033724;28;20471;-88
2023/03/20 08:05:35;;;;;;;19.77;9.57;;;;;;;;;;5045887;28;20037;-89
2023/03/20 08:08:00;;;;;;;16.23;7.85;;;9.00;99.90;;;;;;5060573;28;20083;-89
2023/03/20 08:10:27;;;;;;;22.88;9.00;;;9.10;99.90;;;;;;5049404;28;20064;-88
2023/03/20 08:12:52;;;;;;;15.48;8.13;;;9.20;99.90;;;;;;5065165;28;20036;-88
2023/03/20 08:15:18;;;;;;;17.52;8.63;;;9.40;99.90;;;;;;5048846;28;20161;-90
2023/03/20 08:17:45;;;;;;;17.77;8.68;;;8.20;99.90;;;;;;5061583;28;20374;-89
2023/03/20 08:20:13;;;;;;;19.10;8.27;;;9.40;99.90;;;;;;5050244;28;20127;-89
2023/03/20 08:22:39;;;;;;;18.15;9.02;;;9.40;99.90;;;;;;5045270;28;20055;-90
2023/03/20 08:25:07;;;;;;;18.17;8.63;;;9.40;99.90;;;;;;5050123;28;20051;-93
2023/03/20 08:27:33;;;;;;;17.75;8.30;;;9.40;99.90;;;;;;5033277;28;20037;-90
2023/03/20 08:29:59;;;;;;;18.92;9.07;;;9.30;99.90;;;;;;5068721;28;20303;-91
2023/03/20 08:32:28;;;;;;;16.95;8.52;;;9.30;99.90;;;;;;5046718;28;20064;-89
2023/03/20 08:34:54;;;;;;;17.52;8.52;;;9.30;99.90;;;;;;5050912;28;20075;-89
2023/03/20 08:37:22;;;;;;;18.55;8.25;;;9.30;99.90;;;;;;5048729;28;20135;-91
2023/03/20 08:39:48;;;;;;;17.13;8.35;;;9.70;99.90;;;;;;5051372;28;20032;-89
2023/03/20 08:42:14;;;;;;;17.75;8.32;;;9.20;99.90;;;;;;5049056;28;20059;-89
2023/03/20 08:44:40;;;;;;;19.55;8.73;;;9.20;99.90;;;;;;5082645;28;20072;-90
2023/03/20 08:47:06;;;;;;;19.20;8.85;;;9.30;99.90;;;;;;5032227;28;20033;-89
2023/03/20 08:49:35;;;;;;;18.95;8.82;;;9.30;99.90;;;;;;5018193;28;20055;-89
2023/03/20 08:52:01;;;;;;;17.55;8.23;;;9.30;99.90;;;;;;5049084;28;20509;-88
2023/03/20 08:54:27;;;;;;;18.05;9.45;;;9.40;99.90;;;;;;5043862;28;20028;-87
2023/03/20 08:56:53;;;;;;;18.77;8.60;;;9.50;99.90;;;;;;5065026;28;20502;-87
2023/03/20 08:59:18;;;;;;;19.70;8.73;;;9.50;99.90;;;;;;5063342;28;20472;-88
2023/03/20 09:01:45;;;;;;;18.15;8.23;;;9.60;99.90;;;;;;5048502;28;20512;-85
2023/03/20 09:04:12;;;;;;;16.35;8.07;;;9.60;99.90;;;;;;5030354;28;20101;-85
2023/03/20 09:06:38;;;;;;;16.27;7.90;;;9.70;99.90;;;;;;5065564;28;20513;-88
2023/03/20 09:09:04;;;;;;;16.40;8.70;;;9.80;99.90;;;;;;5045848;28;20114;-88
2023/03/20 09:11:31;;;;;;;16.35;8.27;;;9.80;99.90;;;;;;5024229;28;20057;-85
2023/03/20 09:13:58;;;;;;;15.63;8.38;;;9.90;99.90;;;;;;5065032;28;20119;-89
2023/03/20 09:16:24;;;;;;;20.60;8.52;;;9.90;99.90;;;;;;5045136;28;20252;-88
2023/03/20 09:18:50;;;;;;;16.88;8.98;;;10.00;99.90;;;;;;5079451;28;20056;-88
2023/03/20 09:21:16;;;;;;;19.35;8.90;;;10.10;99.90;;;;;;5077177;28;20032;-87
2023/03/20 09:23:41;;;;;;;15.82;8.18;;;10.10;99.90;;;;;;5064244;28;20111;-87
2023/03/20 09:26:07;;;;;;;15.68;7.95;;;10.20;99.90;;;;;;5061154;28;20035;-89
2023/03/20 09:28:33;;;;;;;15.77;8.07;;;10.30;99.90;;;;;;5060842;28;20040;-87
2023/03/20 09:31:00;;;;;;;17.05;7.78;;;10.40;99.90;;;;;;5047275;28;20044;-86
2023/03/20 09:33:26;;;;;;;17.23;7.22;;;10.40;99.90;;;;;;5030703;28;20043;-87
2023/03/20 09:35:51;;;;;;;16.73;7.55;;;10.50;99.90;;;;;;5049172;28;20032;-88
2023/03/20 09:38:17;;;;;;;15.32;7.32;;;10.90;99.90;;;;;;5047186;28;20041;-90
2023/03/20 09:40:51;;;;;;;16.65;7.30;;;10.60;99.90;;;;;;5063080;28;20118;-88
2023/03/20 09:43:57;;;;;;;16.20;7.30;;;10.60;99.90;;;;;;5045214;28;20029;-89
2023/03/20 09:47:09;;;;;;;14.43;6.88;;;10.60;99.90;;;;;;5062937;28;20098;-87
2023/03/20 09:49:54;;;;;;;16.45;7.40;;;10.50;99.90;;;;;;5060952;28;20040;-90
2023/03/20 09:52:32;;;;;;;15.52;7.40;;;10.60;99.90;;;;;;5059784;28;20597;-90
2023/03/20 09:55:20;;;;;;;17.17;6.80;;;10.60;99.90;;;;;;5065396;28;20135;-90
2023/03/20 09:57:51;;;;;;;15.10;6.22;;;10.70;99.90;;;;;;5044874;28;20036;-86
2023/03/20 10:00:27;;;;;;;18.20;7.00;;;10.80;99.90;;;;;;5046380;28;20745;-89
2023/03/20 10:03:00;;;;;;;15.82;6.47;;;10.80;99.90;;;;;;5053439;28;20379;-90
2023/03/20 10:05:45;;;;;;;16.00;6.80;;;10.80;99.90;;;;;;5061329;28;20133;-88
2023/03/20 10:08:17;;;;;;;16.48;6.97;;;10.80;99.90;;;;;;5043676;28;20556;-87
2023/03/20 10:10:52;;;;;;;16.55;6.95;;;10.80;99.90;;;;;;5061063;28;20063;-87
2023/03/20 10:13:30;;;;;;;15.70;7.22;;;10.80;99.90;;;;;;5064341;28;20040;-87
2023/03/20 10:16:26;;;;;;;14.60;6.57;;;10.80;99.90;;;;;;5041048;28;20369;-86
2023/03/20 10:19:06;;;;;;;15.93;7.53;;;10.90;99.90;;;;;;5046186;28;20517;-89
2023/03/20 10:21:45;;;;;;;15.88;7.30;;;10.90;99.90;;;;;;5060943;28;20028;-89
2023/03/20 10:24:48;;;;;;;16.50;7.75;;;10.70;99.90;;;;;;5062897;28;20049;-87
2023/03/20 10:27:23;;;;;;;16.08;7.25;;;10.90;99.90;;;;;;5060121;28;20580;-85
2023/03/20 10:30:03;;;;;;;17.05;7.30;;;10.90;99.90;;;;;;5061320;28;20043;-90
2023/03/20 10:33:01;;;;;;;14.50;7.32;;;10.90;99.90;;;;;;5059475;28;20047;-87
2023/03/20 10:35:55;;;;;;;16.13;7.38;;;11.00;99.90;;;;;;5078793;28;20190;-87
2023/03/20 10:38:27;;;;;;;17.13;8.15;;;11.00;99.90;;;;;;5033868;28;20044;-89
2023/03/20 10:40:56;;;;;;;16.30;8.10;;;11.00;99.90;;;;;;5046597;28;20498;-89
2023/03/20 10:43:43;;;;;;;16.02;7.45;;;11.00;99.90;;;;;;5037371;28;20072;-90
2023/03/20 10:46:24;;;;;;;16.40;7.95;;;10.90;99.90;;;;;;5059415;28;20040;-88
2023/03/20 10:49:12;;;;;;;15.70;8.18;;;10.90;99.90;;;;;;5060724;28;20048;-88
2023/03/20 10:51:46;;;;;;;16.27;7.57;;;10.90;99.90;;;;;;5062335;28;20036;-90
2023/03/20 10:54:35;;;;;;;14.63;7.43;;;10.80;99.90;;;;;;5063818;28;20131;-91
2023/03/20 10:57:03;;;;;;;14.50;7.22;;;10.80;99.90;;;;;;5064224;28;20521;-90
2023/03/20 10:59:49;;;;;;;16.80;8.13;;;10.90;99.90;;;;;;5046531;28;20036;-87
2023/03/20 11:02:17;;;;;;;16.98;8.20;;;10.90;99.90;;;;;;5060296;28;20130;-90
2023/03/20 11:04:44;;;;;;;16.58;7.60;;;;;;;;;;5059101;28;20051;-91
2023/03/20 11:07:24;;;;;;;13.65;7.05;;;11.10;99.90;;;;;;5046023;28;20055;-90
2023/03/20 11:10:06;;;;;;;16.92;7.20;;;11.20;99.90;;;;;;5059583;28;20044;-89
2023/03/20 11:12:34;;;;;;;15.18;6.88;;;11.20;99.90;;;;;;5050321;28;20087;-88
2023/03/20 11:15:25;;;;;;;14.80;6.60;;;11.20;99.90;;;;;;5051903;28;20036;-88
2023/03/20 11:17:59;;;;;;;17.55;6.10;;;11.20;99.90;;;;;;5058540;28;20052;-88
2023/03/20 11:20:30;;;;;;;14.25;6.18;;;11.20;99.90;;;;;;5096615;28;20102;-88
2023/03/20 11:23:00;;;;;;;17.08;5.60;;;11.20;99.90;;;;;;5072300;28;20029;-88
2023/03/20 11:25:32;;;;;;;15.95;6.40;;;11.10;99.90;;;;;;5073994;28;20446;-90
2023/03/20 11:28:18;;;;;;;13.45;5.47;;;11.10;99.90;;;;;;5070695;28;20492;-88
2023/03/20 11:30:45;;;;;;;14.85;5.63;;;11.10;99.90;;;;;;5053939;28;20596;-90
2023/03/20 11:33:11;;;;;;;13.88;5.53;;;11.00;99.90;;;;;;5037932;28;20048;-89
2023/03/20 11:35:37;;;;;;;14.02;5.30;;;10.90;99.90;;;;;;5050886;28;20127;-89
2023/03/20 11:38:12;;;;;;;13.90;5.45;;;10.90;99.90;;;;;;5058938;28;20549;-88
2023/03/20 11:40:38;;;;;;;14.65;5.68;;;10.80;99.90;;;;;;5052359;28;20068;-88
2023/03/20 11:43:18;;;;;;;14.02;5.32;;;10.80;99.90;;;;;;5050086;28;20127;-89
2023/03/20 11:45:46;;;;;;;13.30;5.53;;;10.70;99.90;;;;;;5055879;28;20526;-87
2023/03/20 11:48:24;;;;;;;15.15;5.20;;;10.60;99.90;;;;;;5049244;28;20119;-89
2023/03/20 11:51:09;;;;;;;14.70;6.07;;;10.60;99.90;;;;;;5062826;28;20508;-89
2023/03/20 11:53:40;;;;;;;15.30;5.53;;;10.50;99.90;;;;;;5065959;28;20492;-89
2023/03/20 11:56:13;;;;;;;16.90;5.22;;;10.50;99.90;;;;;;5065626;28;20048;-89
2023/03/20 11:58:48;;;;;;;14.20;4.57;;;10.50;99.90;;;;;;5063267;28;20036;-90
2023/03/20 12:01:14;;;;;;;11.13;4.63;;;10.50;99.90;;;;;;5064870;28;20109;-90
2023/03/20 12:03:41;;;;;;;13.88;4.82;;;10.50;99.90;;;;;;5044886;28;20052;-89
2023/03/20 12:06:14;;;;;;;12.68;4.68;;;10.50;99.90;;;;;;5063136;28;20036;-88
2023/03/20 12:08:41;;;;;;;14.05;4.65;;;10.50;99.90;;;;;;5048905;28;20098;-89
2023/03/20 12:11:34;;;;;;;13.75;4.63;;;10.50;99.90;;;;;;5045658;28;20068;-89
2023/03/20 12:14:04;;;;;;;12.75;4.38;;;10.40;99.90;;;;;;5067788;28;20101;-89
2023/03/20 12:16:31;;;;;;;11.13;4.55;;;10.30;99.90;;;;;;5044558;28;20036;-88
2023/03/20 12:19:03;;;;;;;13.90;4.80;;;10.30;99.90;;;;;;5048523;28;20041;-87
2023/03/20 12:21:39;;;;;;;12.43;4.53;;;10.30;99.90;;;;;;5066780;28;20037;-90
2023/03/20 12:24:08;;;;;;;15.48;4.60;;;10.20;99.90;;;;;;5045645;28;20036;-90
2023/03/20 12:26:37;;;;;;;12.60;3.95;;;10.20;99.90;;;;;;5063865;28;20127;-90
2023/03/20 12:29:06;;;;;;;10.63;3.67;;;10.10;99.90;;;;;;5050135;28;20080;-89
2023/03/20 12:31:50;;;;;;;11.07;4.20;;;10.10;99.90;;;;;;5067662;28;20040;-88
2023/03/20 12:34:36;;;;;;;11.73;4.05;;;10.10;99.90;;;;;;5060236;28;20437;-89
2023/03/20 12:37:03;;;;;;;13.40;4.07;;;;;;;;;;5065294;28;20119;-90
2023/03/20 12:39:40;;;;;;;13.00;4.38;;;10.10;99.90;;;;;;5053778;28;20039;-89
2023/03/20 12:42:27;;;;;;;10.98;4.00;;;10.50;99.90;;;;;;5068943;28;20036;-90
2023/03/20 12:44:53;;;;;;;11.35;3.53;;;10.10;99.90;;;;;;5070545;28;20401;-92
2023/03/20 12:47:47;;;;;;;10.45;3.25;;;10.80;99.90;;;;;;5049543;28;20041;-89
2023/03/20 12:50:24;;;;;;;10.02;2.97;;;10.00;99.90;;;;;;5073682;28;20039;-89
2023/03/20 12:53:06;;;;;;;11.32;3.35;;;10.00;99.90;;;;;;5049889;28;20067;-89
2023/03/20 12:55:44;;;;;;;10.25;3.10;;;9.90;99.90;;;;;;5050519;28;20968;-89
2023/03/20 12:58:25;;;;;;;10.80;3.70;;;9.90;99.90;;;;;;5082055;28;20151;-88
2023/03/20 13:01:35;;;;;;;11.43;3.00;;;9.80;99.90;;;;;;5066323;28;20044;-89
2023/03/20 13:04:31;;;;;;;10.07;2.75;;;9.70;99.90;;;;;;5060878;28;20493;-90
2023/03/20 13:07:02;;;;;;;10.73;2.95;;;9.60;99.90;;;;;;5062219;28;20131;-87
2023/03/20 13:09:47;;;;;;;10.07;3.30;;;9.60;99.90;;;;;;5064381;28;20044;-90